createdAt,value
2022-09-26T00:00:13.809Z,5.57
2022-09-26T00:03:17.060Z,5.77
2022-09-26T00:06:21.535Z,5.83
2022-09-26T00:09:27.236Z,5.00
2022-09-26T00:12:31.871Z,5.63
2022-09-26T00:15:35.060Z,4.97
2022-09-26T00:18:38.876Z,6.13
2022-09-26T00:21:42.196Z,9.53
2022-09-26T00:24:45.429Z,20.70
2022-09-26T00:27:50.215Z,16.80
2022-09-26T00:30:53.668Z,12.90
2022-09-26T00:33:57.371Z,11.00
2022-09-26T00:37:00.589Z,9.27
2022-09-26T00:40:03.848Z,9.00
2022-09-26T00:43:33.121Z,7.20
2022-09-26T00:46:39.298Z,7.00
2022-09-26T00:49:45.920Z,6.43
2022-09-26T00:52:53.917Z,6.97
2022-09-26T00:56:01.278Z,6.60
2022-09-26T00:59:10.958Z,6.80
2022-09-26T01:02:15.144Z,6.10
2022-09-26T01:05:21.621Z,6.40
2022-09-26T01:08:32.558Z,6.20
2022-09-26T01:11:36.691Z,5.70
2022-09-26T01:14:42.925Z,5.90
2022-09-26T01:17:47.510Z,5.53
2022-09-26T01:20:58.573Z,5.63
2022-09-26T01:24:34.883Z,5.93
2022-09-26T01:28:07.614Z,6.07
2022-09-26T01:31:23.490Z,4.90
2022-09-26T01:34:37.086Z,4.57
2022-09-26T01:37:53.654Z,5.00
2022-09-26T01:41:12.909Z,5.27
2022-09-26T01:44:30.481Z,5.30
2022-09-26T01:47:42.780Z,5.30
2022-09-26T01:50:51.789Z,5.30
2022-09-26T01:54:01.541Z,5.20
2022-09-26T01:57:08.795Z,4.80
2022-09-26T02:00:13.191Z,4.13
2022-09-26T02:03:27.560Z,5.00
2022-09-26T02:06:37.750Z,5.57
2022-09-26T02:09:44.513Z,5.10
2022-09-26T02:12:55.104Z,4.90
2022-09-26T02:16:04.332Z,4.80
2022-09-26T02:19:15.472Z,5.30
2022-09-26T02:22:19.208Z,4.90
2022-09-26T02:25:22.492Z,5.30
2022-09-26T02:28:25.881Z,5.70
2022-09-26T02:31:35.593Z,5.90
2022-09-26T02:34:42.657Z,5.63
2022-09-26T02:37:45.965Z,5.70
2022-09-26T02:40:52.562Z,6.07
2022-09-26T02:44:13.849Z,5.73
2022-09-26T02:47:41.208Z,5.67
2022-09-26T02:51:04.520Z,6.27
2022-09-26T02:54:21.068Z,7.80
2022-09-26T02:57:40.114Z,11.17
2022-09-26T03:00:56.242Z,12.30
2022-09-26T03:04:05.471Z,12.57
2022-09-26T03:07:15.687Z,11.57
2022-09-26T03:10:20.358Z,8.10
2022-09-26T03:13:26.138Z,7.90
2022-09-26T03:16:35.497Z,6.97
2022-09-26T03:19:46.594Z,6.23
2022-09-26T03:22:52.349Z,5.47
2022-09-26T03:26:02.020Z,5.93
2022-09-26T03:29:07.281Z,6.13
2022-09-26T03:32:12.011Z,6.63
2022-09-26T03:35:16.057Z,6.67
2022-09-26T03:38:21.426Z,5.93
2022-09-26T03:41:30.973Z,5.97
2022-09-26T03:44:44.877Z,6.70
2022-09-26T03:47:48.253Z,7.63
2022-09-26T03:50:51.595Z,8.83
2022-09-26T03:53:56.209Z,8.93
2022-09-26T03:57:01.441Z,9.37
2022-09-26T04:00:07.760Z,9.20
2022-09-26T04:03:19.999Z,10.57
2022-09-26T04:06:23.446Z,13.07
2022-09-26T04:09:29.286Z,12.77
2022-09-26T04:12:32.699Z,11.23
2022-09-26T04:15:36.675Z,10.13
2022-09-26T04:18:46.348Z,8.27
2022-09-26T04:21:52.331Z,8.97
2022-09-26T04:24:58.388Z,7.20
2022-09-26T04:28:02.392Z,7.80
2022-09-26T04:31:07.818Z,7.27
2022-09-26T04:34:12.146Z,7.30
2022-09-26T04:37:15.423Z,7.83
2022-09-26T04:40:20.230Z,8.00
2022-09-26T04:43:35.982Z,7.63
2022-09-26T04:46:40.067Z,7.33
2022-09-26T04:49:43.490Z,7.00
2022-09-26T04:52:46.796Z,7.17
2022-09-26T04:55:54.457Z,7.47
2022-09-26T04:58:59.372Z,5.97
2022-09-26T05:02:10.239Z,6.57
2022-09-26T05:05:19.377Z,6.40
2022-09-26T05:08:23.619Z,6.80
2022-09-26T05:11:28.298Z,6.80
2022-09-26T05:14:31.746Z,5.53
2022-09-26T05:17:35.566Z,7.33
2022-09-26T05:20:45.545Z,7.33
2022-09-26T05:24:06.543Z,7.73
2022-09-26T05:27:11.215Z,6.50
2022-09-26T05:30:14.623Z,6.17
2022-09-26T05:33:19.666Z,5.63
2022-09-26T05:36:23.200Z,5.90
2022-09-26T05:39:45.288Z,5.47
2022-09-26T05:42:51.217Z,5.70
2022-09-26T05:45:58.322Z,5.97
2022-09-26T05:49:04.676Z,5.80
2022-09-26T05:52:08.097Z,5.63
2022-09-26T05:55:12.083Z,5.27
2022-09-26T05:58:37.428Z,5.53
2022-09-26T06:01:52.707Z,4.97
2022-09-26T06:05:14.442Z,5.70
2022-09-26T06:08:38.265Z,5.63
2022-09-26T06:12:01.942Z,5.53
2022-09-26T06:15:09.662Z,5.80
2022-09-26T06:18:12.975Z,6.07
2022-09-26T06:21:18.014Z,6.27
2022-09-26T06:24:24.258Z,6.37
2022-09-26T06:27:35.149Z,6.40
2022-09-26T06:30:42.071Z,7.93
2022-09-26T06:33:58.701Z,7.20
2022-09-26T06:37:12.735Z,7.70
2022-09-26T06:40:16.335Z,5.80
2022-09-26T06:43:19.893Z,6.33
2022-09-26T06:46:43.443Z,6.47
2022-09-26T06:49:52.435Z,6.50
2022-09-26T06:53:07.443Z,7.23
2022-09-26T06:56:17.330Z,5.80
2022-09-26T06:59:20.809Z,6.17
2022-09-26T07:02:53.240Z,6.03
2022-09-26T07:06:14.845Z,5.77
2022-09-26T07:09:20.771Z,6.27
2022-09-26T07:12:29.783Z,6.20
2022-09-26T07:15:34.461Z,6.17
2022-09-26T07:18:46.662Z,6.67
2022-09-26T07:21:57.771Z,5.97
2022-09-26T07:25:09.621Z,5.53
2022-09-26T07:28:13.058Z,4.87
2022-09-26T07:31:24.838Z,4.97
2022-09-26T07:34:44.500Z,5.10
2022-09-26T07:37:53.574Z,5.03
2022-09-26T07:40:56.914Z,5.57
2022-09-26T07:47:41.855Z,4.70
2022-09-26T07:51:09.426Z,4.90
2022-09-26T07:54:22.616Z,5.33
2022-09-26T07:57:54.097Z,4.60
2022-09-26T08:01:02.469Z,5.57
2022-09-26T08:04:24.357Z,5.90
2022-09-26T08:07:29.340Z,6.25
2022-09-26T08:10:39.230Z,4.85
2022-09-26T08:14:14.062Z,5.35
2022-09-26T08:17:36.278Z,6.95
2022-09-26T08:20:39.557Z,5.55
2022-09-26T08:23:44.201Z,5.30
2022-09-26T08:27:05.883Z,4.78
2022-09-26T08:30:15.050Z,4.90
2022-09-26T08:33:19.156Z,4.18
2022-09-26T08:36:22.641Z,4.70
2022-09-26T08:39:50.315Z,5.68
2022-09-26T08:43:33.597Z,5.13
2022-09-26T08:47:05.115Z,4.60
2022-09-26T08:50:16.100Z,4.68
2022-09-26T08:53:25.421Z,5.88
2022-09-26T08:56:36.366Z,6.10
2022-09-26T08:59:43.617Z,4.65
2022-09-26T09:03:01.271Z,5.47
2022-09-26T09:06:08.938Z,5.82
2022-09-26T09:09:16.379Z,5.03
2022-09-26T09:12:54.820Z,4.78
2022-09-26T09:16:29.080Z,5.00
2022-09-26T09:20:04.680Z,4.75
2022-09-26T09:23:39.197Z,4.38
2022-09-26T09:30:24.910Z,3.92
2022-09-26T09:33:35.790Z,4.43
2022-09-26T09:37:08.868Z,3.65
2022-09-26T09:40:29.604Z,4.15
2022-09-26T09:43:41.834Z,5.10
2022-09-26T09:46:49.130Z,4.78
2022-09-26T09:49:53.969Z,4.60
2022-09-26T09:53:10.073Z,4.38
2022-09-26T09:56:29.724Z,3.80
2022-09-26T09:59:56.075Z,3.88
2022-09-26T10:03:06.062Z,3.55
2022-09-26T10:06:44.397Z,3.95
2022-09-26T10:09:41.125Z,3.80
2022-09-26T10:13:03.766Z,3.70
2022-09-26T10:16:29.586Z,3.88
2022-09-26T10:19:39.334Z,3.92
2022-09-26T10:22:45.671Z,3.78
2022-09-26T10:26:03.712Z,4.07
2022-09-26T10:29:22.980Z,3.58
2022-09-26T10:32:26.637Z,3.45
2022-09-26T10:35:45.479Z,3.75
2022-09-26T10:39:16.030Z,3.10
2022-09-26T10:42:23.103Z,3.67
2022-09-26T10:45:36.465Z,3.13
2022-09-26T10:49:07.337Z,3.38
2022-09-26T10:52:35.830Z,3.50
2022-09-26T10:55:47.465Z,3.92
2022-09-26T10:58:52.203Z,3.67
2022-09-26T11:01:59.533Z,3.40
2022-09-26T11:05:24.806Z,3.50
2022-09-26T11:08:38.873Z,3.45
2022-09-26T11:12:00.430Z,3.70
2022-09-26T11:15:10.255Z,4.10
2022-09-26T11:18:26.297Z,3.35
2022-09-26T11:21:38.441Z,3.50
2022-09-26T11:24:52.711Z,3.28
2022-09-26T11:28:06.170Z,3.03
2022-09-26T11:31:34.544Z,24.92
2022-09-26T11:35:02.634Z,5.53
2022-09-26T11:38:18.909Z,4.10
2022-09-26T11:41:43.846Z,4.38
2022-09-26T11:44:55.826Z,4.07
2022-09-26T11:48:46.642Z,3.90
2022-09-26T11:52:44.373Z,5.25
2022-09-26T11:56:07.410Z,4.45
2022-09-26T11:59:27.892Z,3.25
2022-09-26T12:03:08.638Z,4.20
2022-09-26T12:06:23.028Z,3.58
2022-09-26T12:09:38.465Z,3.67
2022-09-26T12:12:50.209Z,3.58
2022-09-26T12:16:02.434Z,3.92
2022-09-26T12:19:17.094Z,3.88
2022-09-26T12:22:31.905Z,4.03
2022-09-26T12:25:44.340Z,3.72
2022-09-26T12:29:16.369Z,3.90
2022-09-26T12:32:41.105Z,3.60
2022-09-26T12:35:52.184Z,3.55
2022-09-26T12:39:16.869Z,3.10
2022-09-26T12:42:37.610Z,3.58
2022-09-26T12:45:59.534Z,3.53
2022-09-26T12:49:28.764Z,3.28
2022-09-26T12:52:53.266Z,3.75
2022-09-26T12:56:06.300Z,3.65
2022-09-26T12:59:25.094Z,3.60
2022-09-26T13:03:07.910Z,3.30
2022-09-26T13:06:48.917Z,3.80
2022-09-26T13:10:28.098Z,3.67
2022-09-26T13:13:57.089Z,3.60
2022-09-26T13:17:10.271Z,3.50
2022-09-26T13:20:21.220Z,3.13
2022-09-26T13:23:31.519Z,3.25
2022-09-26T13:26:42.934Z,3.70
2022-09-26T13:29:51.387Z,3.75
2022-09-26T13:33:02.412Z,3.67
2022-09-26T13:36:09.666Z,3.60
2022-09-26T13:39:19.189Z,3.95
2022-09-26T13:42:30.113Z,3.90
2022-09-26T13:45:58.696Z,3.70
2022-09-26T13:49:14.568Z,3.58
2022-09-26T13:52:52.477Z,3.60
2022-09-26T13:56:34.087Z,3.42
2022-09-26T13:59:54.451Z,3.70
2022-09-26T14:03:35.409Z,4.13
2022-09-26T14:06:38.611Z,3.97
2022-09-26T14:09:53.074Z,3.80
2022-09-26T14:13:06.713Z,3.63
2022-09-26T14:16:36.821Z,3.70
2022-09-26T14:19:45.084Z,3.83
2022-09-26T14:22:52.983Z,3.65
2022-09-26T14:25:57.893Z,3.50
2022-09-26T14:29:26.300Z,3.70
2022-09-26T14:32:38.920Z,4.47
2022-09-26T14:35:43.306Z,3.80
2022-09-26T14:38:48.504Z,4.20
2022-09-26T14:41:52.134Z,3.80
2022-09-26T14:44:59.385Z,3.10
2022-09-26T14:48:16.351Z,3.72
2022-09-26T14:51:31.762Z,3.58
2022-09-26T14:54:39.830Z,3.90
2022-09-26T14:57:43.201Z,3.22
2022-09-26T15:00:49.787Z,3.78
2022-09-26T15:04:03.779Z,3.33
2022-09-26T15:07:16.506Z,3.35
2022-09-26T15:10:27.127Z,3.40
2022-09-26T15:13:38.778Z,3.67
2022-09-26T15:16:47.813Z,3.97
2022-09-26T15:19:56.288Z,4.43
2022-09-26T15:23:01.445Z,4.60
2022-09-26T15:26:05.421Z,5.20
2022-09-26T15:29:12.331Z,5.63
2022-09-26T15:32:19.518Z,5.25
2022-09-26T15:35:24.370Z,4.80
2022-09-26T15:38:27.582Z,5.35
2022-09-26T15:41:48.228Z,7.13
2022-09-26T15:44:58.739Z,6.57
2022-09-26T15:48:04.500Z,5.70
2022-09-26T15:51:17.557Z,5.53
2022-09-26T15:54:27.512Z,6.28
2022-09-26T15:57:31.013Z,5.53
2022-09-26T16:00:38.183Z,6.63
2022-09-26T16:03:47.487Z,6.55
2022-09-26T16:06:58.292Z,6.38
2022-09-26T16:10:02.959Z,6.45
2022-09-26T16:13:07.005Z,8.27
2022-09-26T16:16:17.777Z,9.02
2022-09-26T16:19:30.729Z,16.33
2022-09-26T16:22:45.926Z,15.65
2022-09-26T16:25:53.639Z,13.13
2022-09-26T16:28:57.956Z,10.55
2022-09-26T16:32:02.079Z,10.15
2022-09-26T16:35:19.709Z,8.93
2022-09-26T16:38:30.245Z,9.88
2022-09-26T16:45:06.043Z,11.50
2022-09-26T16:48:35.265Z,10.07
2022-09-26T16:51:40.198Z,10.45
2022-09-26T16:54:48.016Z,9.90
2022-09-26T16:57:56.695Z,11.98
2022-09-26T17:01:17.371Z,11.63
2022-09-26T17:04:23.474Z,13.00
2022-09-26T17:07:26.734Z,11.32
2022-09-26T17:10:37.679Z,11.82
2022-09-26T17:13:42.958Z,12.15
2022-09-26T17:16:48.595Z,11.30
2022-09-26T17:19:59.191Z,12.07
2022-09-26T17:23:17.144Z,11.82
2022-09-26T17:26:28.111Z,14.25
2022-09-26T17:29:34.339Z,12.35
2022-09-26T17:32:39.308Z,17.75
2022-09-26T17:35:43.307Z,13.35
2022-09-26T17:38:46.554Z,14.00
2022-09-26T17:41:51.437Z,10.30
2022-09-26T17:44:54.668Z,11.32
2022-09-26T17:48:00.529Z,12.27
2022-09-26T17:51:06.038Z,10.75
2022-09-26T17:54:16.125Z,10.10
2022-09-26T17:57:25.649Z,11.38
2022-09-26T18:00:33.004Z,10.65
2022-09-26T18:03:39.715Z,9.55
2022-09-26T18:06:44.108Z,9.60
2022-09-26T18:09:47.474Z,8.23
2022-09-26T18:12:58.052Z,9.25
2022-09-26T18:16:02.677Z,9.25
2022-09-26T18:19:07.924Z,8.85
2022-09-26T18:22:17.442Z,8.48
2022-09-26T18:25:24.112Z,9.07
2022-09-26T18:28:29.803Z,9.40
2022-09-26T18:31:37.676Z,11.15
2022-09-26T18:34:41.804Z,9.05
2022-09-26T18:37:46.113Z,10.68
2022-09-26T18:40:55.317Z,9.82
2022-09-26T18:44:03.091Z,10.02
2022-09-26T18:47:15.181Z,9.85
2022-09-26T18:50:27.287Z,10.25
2022-09-26T18:53:37.238Z,9.50
2022-09-26T18:56:58.659Z,10.70
2022-09-26T19:00:05.543Z,10.05
2022-09-26T19:03:09.381Z,10.82
2022-09-26T19:06:16.399Z,9.82
2022-09-26T19:09:22.064Z,9.68
2022-09-26T19:12:25.894Z,9.93
2022-09-26T19:15:31.207Z,9.18
2022-09-26T19:18:34.613Z,10.63
2022-09-26T19:21:39.376Z,9.07
2022-09-26T19:24:46.695Z,8.93
2022-09-26T19:27:53.593Z,8.90
2022-09-26T19:30:58.351Z,9.55
2022-09-26T19:34:02.200Z,9.65
2022-09-26T19:37:07.015Z,8.90
2022-09-26T19:40:14.488Z,8.00
2022-09-26T19:43:18.132Z,8.20
2022-09-26T19:46:28.302Z,8.52
2022-09-26T19:49:32.169Z,8.60
2022-09-26T19:52:35.785Z,9.77
2022-09-26T19:55:39.498Z,9.13
2022-09-26T19:58:46.345Z,8.90
2022-09-26T20:01:51.263Z,9.13
2022-09-26T20:04:54.597Z,9.83
2022-09-26T20:07:57.813Z,8.80
2022-09-26T20:11:01.684Z,11.17
2022-09-26T20:14:22.583Z,8.80
2022-09-26T20:17:29.616Z,9.20
2022-09-26T20:20:34.969Z,9.43
2022-09-26T20:23:38.316Z,11.93
2022-09-26T20:26:42.414Z,11.57
2022-09-26T20:30:03.562Z,11.37
2022-09-26T20:33:08.244Z,10.63
2022-09-26T20:36:13.389Z,11.33
2022-09-26T20:39:21.007Z,13.43
2022-09-26T20:42:28.087Z,11.47
2022-09-26T20:45:38.725Z,10.33
2022-09-26T20:48:46.781Z,11.15
2022-09-26T20:51:51.136Z,9.10
2022-09-26T20:54:55.320Z,8.80
2022-09-26T20:57:59.627Z,9.60
2022-09-26T21:01:02.901Z,8.20
2022-09-26T21:04:10.987Z,7.83
2022-09-26T21:07:16.513Z,8.03
2022-09-26T21:10:28.429Z,7.27
2022-09-26T21:13:31.598Z,6.73
2022-09-26T21:16:34.921Z,13.23
2022-09-26T21:19:39.542Z,9.87
2022-09-26T21:23:05.261Z,7.80
2022-09-26T21:26:08.507Z,7.57
2022-09-26T21:29:16.293Z,8.10
2022-09-26T21:32:22.622Z,9.83
2022-09-26T21:35:30.643Z,8.43
2022-09-26T21:38:33.942Z,8.33
2022-09-26T21:41:38.547Z,9.10
2022-09-26T21:44:44.885Z,11.20
2022-09-26T21:47:48.261Z,9.20
2022-09-26T21:50:58.308Z,8.77
2022-09-26T21:54:07.611Z,8.60
2022-09-26T21:57:16.707Z,9.13
2022-09-26T22:00:20.085Z,8.47
2022-09-26T22:03:23.360Z,7.80
2022-09-26T22:06:28.261Z,7.97
2022-09-26T22:09:31.601Z,7.70
2022-09-26T22:12:35.778Z,7.63
2022-09-26T22:15:38.980Z,7.57
2022-09-26T22:18:42.685Z,8.50
2022-09-26T22:21:47.342Z,9.27
2022-09-26T22:24:50.585Z,9.30
2022-09-26T22:27:53.880Z,8.63
2022-09-26T22:31:01.909Z,8.73
2022-09-26T22:34:07.116Z,9.00
2022-09-26T22:37:11.787Z,8.93
2022-09-26T22:40:15.050Z,9.13
2022-09-26T22:43:18.381Z,8.97
2022-09-26T22:46:21.841Z,9.37
2022-09-26T22:49:25.157Z,9.50
2022-09-26T22:52:30.038Z,9.33
2022-09-26T22:55:33.182Z,9.77
2022-09-26T22:58:39.517Z,9.67
2022-09-26T23:01:42.821Z,11.17
2022-09-26T23:04:49.117Z,10.60
2022-09-26T23:07:55.679Z,10.20
2022-09-26T23:10:58.952Z,10.50
2022-09-26T23:14:02.292Z,10.77
2022-09-26T23:17:05.978Z,11.07
2022-09-26T23:20:10.141Z,9.97
2022-09-26T23:23:16.071Z,10.60
2022-09-26T23:26:22.471Z,9.97
2022-09-26T23:29:28.487Z,11.53
2022-09-26T23:32:31.701Z,10.53
2022-09-26T23:35:34.957Z,10.10
2022-09-26T23:38:41.320Z,10.83
2022-09-26T23:41:44.493Z,10.87
2022-09-26T23:44:47.784Z,11.60
2022-09-26T23:47:51.141Z,10.07
2022-09-26T23:50:54.471Z,10.07
2022-09-26T23:54:00.039Z,10.07
2022-09-26T23:57:05.258Z,9.80
